Airfield :
LOGIN :

Register | Disclaimer

   EN    FR    IT 

 










Legend :    VFR   Marginal VFR   IFR   Intensive IFR   Very Intensive IFR
Visi :
Ceiling :
>= 8 km
>= 3000ft
5 to 8 km
1000 to 3000 ft
1500m to 5 km
500 to 1000 ft
800 to 1500m
200 to 500 ft
< 800m
< 200 ft
Symbols :   Thunderstorms  Fog  Heavy snow  Heavy precipitations  Wind > 20 kt
SIGMETs :     Misc.  Thunderstorms  Icing  Turbulence  Mountain Waves  Volcanic Ashes







- Airport Elevation : 160 ft
- IATA code : LRT
- Download approach charts


LFRH - Lorient Lann Bihoue

CURRENT METAR :
  • 210730Z AUTO 32001KT 5000 BR NSC M00/M01 Q1025 NOSIG

EXPIRED METARs :
  • 210700Z AUTO VRB02KT 6000 NSC 00/M00 Q1025 TEMPO 1000 FZFG
  • 210630Z AUTO 35003KT 7000 NSC 00/M01 Q1025 TEMPO 1000 FZFG
  • 210600Z AUTO 34005KT 7000 NSC M00/M01 Q1025 TEMPO 1000 FZFG
  • 210530Z AUTO VRB02KT 6000 NSC 00/M00 Q1025 TEMPO 1000 FZFG
  • 210500Z AUTO 33005KT 8000 NSC 00/M01 Q1025 TEMPO 1000 FZFG

TAF TAF LFRH
Valid from the 21 at 06:00 until the 22 at 06:00 UTC


210500Z 2106/2206 34005KT 7000 NSC
TEMPO 2106/2108 3000 BR
PROB30
TEMPO 2106/2108 1000 FZFG
BECMG 2110/2114 BKN020 OVC030
BECMG 2116/2118 22010KT
BECMG 2120/2122 22015G25KT 5000 -RA OVC015
TEMPO 2203/2205 30020G35KT 4000 RA
BECMG 2204/2206 30010KT 9999 NSW OVC040
No reported NOTAMs for that airfield.



MET'MAP, your aeronautical weather chart ! - Copyright ORBIFLY December 2007 - Disclaimer

ORBIFLY MET'MAP TEAM :

Programming & Development : Alexandra Zaïnal
Concept & Development : Baudouin d'Aumeries
Co-Development & Prog : Marc-Olivier Méhu
Technical & hardware support : Manuel Goepfert

Contact : metmap@orbifly.com




SOURCES & CREDITS :

   NOAA